createdAt,value
2017-03-27T00:00:49.860Z,6.43
2017-03-27T00:01:49.587Z,6.44
2017-03-27T00:02:49.930Z,6.38
2017-03-27T00:03:49.956Z,6.51
2017-03-27T00:04:49.687Z,6.5
2017-03-27T00:05:50.026Z,6.4
2017-03-27T00:06:49.756Z,6.46
2017-03-27T00:07:50.101Z,6.5
2017-03-27T00:08:50.134Z,6.44
2017-03-27T00:09:49.850Z,6.46
2017-03-27T00:10:50.191Z,6.43
2017-03-27T00:11:50.230Z,6.4
2017-03-27T00:12:49.961Z,6.38
2017-03-27T00:13:50.296Z,6.4
2017-03-27T00:14:50.336Z,6.36
2017-03-27T00:15:50.052Z,6.33
2017-03-27T00:16:50.085Z,6.35
2017-03-27T00:17:50.433Z,6.38
2017-03-27T00:18:50.457Z,6.3
2017-03-27T00:19:50.195Z,6.41
2017-03-27T00:20:50.527Z,6.28
2017-03-27T00:21:50.568Z,6.38
2017-03-27T00:22:50.595Z,6.35
2017-03-27T00:23:50.326Z,6.32
2017-03-27T00:24:50.351Z,6.3
2017-03-27T00:25:50.390Z,6.28
2017-03-27T00:26:50.415Z,6.3
2017-03-27T00:27:50.463Z,6.28
2017-03-27T00:28:50.794Z,6.28
2017-03-27T00:29:50.520Z,6.19
2017-03-27T00:30:50.856Z,6.19
2017-03-27T00:31:50.581Z,6.11
2017-03-27T00:32:50.637Z,6.18
2017-03-27T00:33:50.647Z,6.16
2017-03-27T00:34:50.681Z,6.18
2017-03-27T00:35:50.728Z,6.1
2017-03-27T00:36:50.747Z,6.04
2017-03-27T00:37:50.784Z,6.1
2017-03-27T00:38:50.812Z,6.03
2017-03-27T00:39:51.020Z,6.03
2017-03-27T00:40:50.894Z,6.11
2017-03-27T00:41:50.912Z,6.07
2017-03-27T00:42:50.955Z,6
2017-03-27T00:43:50.981Z,6.09
2017-03-27T00:44:51.011Z,6.04
2017-03-27T00:45:51.051Z,6.09
2017-03-27T00:46:51.077Z,5.98
2017-03-27T00:47:51.419Z,6.07
2017-03-27T00:48:51.146Z,6.06
2017-03-27T00:49:51.480Z,6.09
2017-03-27T00:50:51.228Z,6.03
2017-03-27T00:51:51.243Z,6.01
2017-03-27T00:52:51.574Z,5.98
2017-03-27T00:53:51.938Z,5.95
2017-03-27T00:54:51.646Z,5.93
2017-03-27T00:55:51.369Z,5.95
2017-03-27T00:56:51.710Z,6.06
2017-03-27T00:57:51.739Z,6.03
2017-03-27T00:58:51.783Z,5.96
2017-03-27T00:59:51.507Z,6.01
2017-03-27T01:00:51.848Z,6.01
2017-03-27T01:01:51.585Z,5.98
2017-03-27T01:02:52.229Z,5.92
2017-03-27T01:03:52.239Z,5.98
2017-03-27T01:04:51.972Z,5.93
2017-03-27T01:05:51.707Z,6
2017-03-27T01:06:52.043Z,5.92
2017-03-27T01:07:51.761Z,5.91
2017-03-27T01:08:52.108Z,5.96
2017-03-27T01:09:51.831Z,5.93
2017-03-27T01:10:51.868Z,5.91
2017-03-27T01:11:52.201Z,5.91
2017-03-27T01:12:52.235Z,5.86
2017-03-27T01:13:52.566Z,5.92
2017-03-27T01:14:52.022Z,5.91
2017-03-27T01:15:52.031Z,5.91
2017-03-27T01:16:52.386Z,5.92
2017-03-27T01:17:52.092Z,5.91
2017-03-27T01:18:52.427Z,5.89
2017-03-27T01:19:52.471Z,5.89
2017-03-27T01:20:52.189Z,5.89
2017-03-27T01:21:52.558Z,5.93
2017-03-27T01:22:52.575Z,5.88
2017-03-27T01:23:52.293Z,5.83
2017-03-27T01:24:52.621Z,5.82
2017-03-27T01:25:52.356Z,5.77
2017-03-27T01:26:52.688Z,5.86
2017-03-27T01:27:52.724Z,5.82
2017-03-27T01:28:52.753Z,5.86
2017-03-27T01:29:52.490Z,5.71
2017-03-27T01:30:52.817Z,5.74
2017-03-27T01:31:52.856Z,5.66
2017-03-27T01:32:52.588Z,5.74
2017-03-27T01:33:53.223Z,5.7
2017-03-27T01:34:52.648Z,5.71
2017-03-27T01:35:53.012Z,5.74
2017-03-27T01:36:53.019Z,5.66
2017-03-27T01:37:52.744Z,5.66
2017-03-27T01:38:52.781Z,5.68
2017-03-27T01:39:52.812Z,5.67
2017-03-27T01:40:53.174Z,5.67
2017-03-27T01:41:52.894Z,5.64
2017-03-27T01:42:52.911Z,5.67
2017-03-27T01:43:52.945Z,5.64
2017-03-27T01:44:52.979Z,5.64
2017-03-27T01:45:53.013Z,5.7
2017-03-27T01:46:53.343Z,5.59
2017-03-27T01:47:53.070Z,5.55
2017-03-27T01:48:53.406Z,5.63
2017-03-27T01:49:53.737Z,5.55
2017-03-27T01:50:53.477Z,5.68
2017-03-27T01:51:53.199Z,5.68
2017-03-27T01:52:53.534Z,5.63
2017-03-27T01:53:53.598Z,5.59
2017-03-27T01:54:53.605Z,5.56
2017-03-27T01:55:53.339Z,5.66
2017-03-27T01:56:53.670Z,5.56
2017-03-27T01:57:53.400Z,5.48
2017-03-27T01:58:53.730Z,5.48
2017-03-27T01:59:53.760Z,5.46
2017-03-27T02:00:53.497Z,5.48
2017-03-27T02:01:53.524Z,5.5
2017-03-27T02:02:53.589Z,5.46
2017-03-27T02:03:54.194Z,5.46
2017-03-27T02:04:53.928Z,5.41
2017-03-27T02:05:53.662Z,5.38
2017-03-27T02:06:53.713Z,5.31
2017-03-27T02:07:53.723Z,5.34
2017-03-27T02:08:53.768Z,5.37
2017-03-27T02:09:54.091Z,5.4
2017-03-27T02:10:53.812Z,5.23
2017-03-27T02:11:53.847Z,5.3
2017-03-27T02:12:54.181Z,5.37
2017-03-27T02:13:54.214Z,5.34
2017-03-27T02:14:54.252Z,5.3
2017-03-27T02:15:53.994Z,5.32
2017-03-27T02:16:54.013Z,5.19
2017-03-27T02:17:54.047Z,5.2
2017-03-27T02:18:54.397Z,5.25
2017-03-27T02:19:54.718Z,5.32
2017-03-27T02:20:54.162Z,5.27
2017-03-27T02:21:54.175Z,5.22
2017-03-27T02:22:54.556Z,5.22
2017-03-27T02:23:54.236Z,5.3
2017-03-27T02:24:54.319Z,5.27
2017-03-27T02:25:54.302Z,5.22
2017-03-27T02:26:54.334Z,5.34
2017-03-27T02:27:54.672Z,5.25
2017-03-27T02:28:54.701Z,5.27
2017-03-27T02:29:54.430Z,5.35
2017-03-27T02:30:54.763Z,5.32
2017-03-27T02:31:54.494Z,5.3
2017-03-27T02:32:54.527Z,5.28
2017-03-27T02:33:54.880Z,5.31
2017-03-27T02:34:54.589Z,5.27
2017-03-27T02:35:54.632Z,5.31
2017-03-27T02:36:54.653Z,5.27
2017-03-27T02:37:54.696Z,5.27
2017-03-27T02:38:54.721Z,5.27
2017-03-27T02:39:55.053Z,5.22
2017-03-27T02:40:54.782Z,5.17
2017-03-27T02:41:54.815Z,5.27
2017-03-27T02:42:55.170Z,5.23
2017-03-27T02:43:55.205Z,5.13
2017-03-27T02:44:54.920Z,5.17
2017-03-27T02:45:54.946Z,5.14
2017-03-27T02:46:54.977Z,5.09
2017-03-27T02:47:55.619Z,5.14
2017-03-27T02:48:55.665Z,5.2
2017-03-27T02:49:55.081Z,5.12
2017-03-27T02:50:55.405Z,5.16
2017-03-27T02:51:55.135Z,5.05
2017-03-27T02:52:55.489Z,5.14
2017-03-27T02:53:55.509Z,5.12
2017-03-27T02:54:55.541Z,5.1
2017-03-27T02:55:55.562Z,4.98
2017-03-27T02:56:55.607Z,5.09
2017-03-27T02:57:55.632Z,4.99
2017-03-27T02:58:55.385Z,4.99
2017-03-27T02:59:55.394Z,5.04
2017-03-27T03:00:55.731Z,4.98
2017-03-27T03:01:55.458Z,4.95
2017-03-27T03:02:56.097Z,4.94
2017-03-27T03:03:55.838Z,4.96
2017-03-27T03:04:55.555Z,4.99
2017-03-27T03:05:55.590Z,4.99
2017-03-27T03:06:55.623Z,4.94
2017-03-27T03:07:55.954Z,4.98
2017-03-27T03:08:55.993Z,4.98
2017-03-27T03:09:55.733Z,4.96
2017-03-27T03:10:55.754Z,4.94
2017-03-27T03:11:55.776Z,4.96
2017-03-27T03:12:56.115Z,4.96
2017-03-27T03:13:56.153Z,4.98
2017-03-27T03:14:56.199Z,4.94
2017-03-27T03:15:56.213Z,4.95
2017-03-27T03:16:55.937Z,4.95
2017-03-27T03:17:56.278Z,4.89
2017-03-27T03:18:56.617Z,4.88
2017-03-27T03:19:56.345Z,4.92
2017-03-27T03:20:56.069Z,4.88
2017-03-27T03:21:56.100Z,4.86
2017-03-27T03:22:56.449Z,4.88
2017-03-27T03:23:56.166Z,4.86
2017-03-27T03:24:56.804Z,4.79
2017-03-27T03:25:56.527Z,4.84
2017-03-27T03:26:56.254Z,4.75
2017-03-27T03:27:56.606Z,4.65
2017-03-27T03:28:56.628Z,4.69
2017-03-27T03:29:56.664Z,4.76
2017-03-27T03:30:56.715Z,4.69
2017-03-27T03:31:56.723Z,4.72
2017-03-27T03:32:56.459Z,4.7
2017-03-27T03:33:56.791Z,4.7
2017-03-27T03:34:56.521Z,4.69
2017-03-27T03:35:56.853Z,4.58
2017-03-27T03:36:56.587Z,4.52
2017-03-27T03:37:56.613Z,4.64
2017-03-27T03:38:56.641Z,4.57
2017-03-27T03:39:56.991Z,4.7
2017-03-27T03:40:56.704Z,4.62
2017-03-27T03:41:56.737Z,4.7
2017-03-27T03:42:57.073Z,4.62
2017-03-27T03:43:56.830Z,4.62
2017-03-27T03:44:57.140Z,4.58
2017-03-27T03:45:56.858Z,4.61
2017-03-27T03:46:57.203Z,4.52
2017-03-27T03:47:56.935Z,4.54
2017-03-27T03:48:56.958Z,4.52
2017-03-27T03:49:57.303Z,4.47
2017-03-27T03:50:57.030Z,4.67
2017-03-27T03:51:57.370Z,4.55
2017-03-27T03:52:57.397Z,4.57
2017-03-27T03:53:57.433Z,4.54
2017-03-27T03:54:57.173Z,4.57
2017-03-27T03:55:57.199Z,4.61
2017-03-27T03:56:57.520Z,4.54
2017-03-27T03:57:57.242Z,4.57
2017-03-27T03:58:57.575Z,4.61
2017-03-27T03:59:57.311Z,4.52
2017-03-27T04:00:57.347Z,4.51
2017-03-27T04:01:57.681Z,4.54
2017-03-27T04:02:57.702Z,4.55
2017-03-27T04:03:57.759Z,4.54
2017-03-27T04:04:57.472Z,4.39
2017-03-27T04:05:57.521Z,4.44
2017-03-27T04:06:57.533Z,4.46
2017-03-27T04:07:57.865Z,4.47
2017-03-27T04:08:57.904Z,4.5
2017-03-27T04:09:57.933Z,4.34
2017-03-27T04:10:57.960Z,4.37
2017-03-27T04:11:57.687Z,4.4
2017-03-27T04:12:57.723Z,4.46
2017-03-27T04:13:58.057Z,4.46
2017-03-27T04:14:58.090Z,4.37
2017-03-27T04:15:58.111Z,4.4
2017-03-27T04:16:58.143Z,4.39
2017-03-27T04:17:58.179Z,4.46
2017-03-27T04:18:58.224Z,4.33
2017-03-27T04:19:58.256Z,4.39
2017-03-27T04:20:57.967Z,4.42
2017-03-27T04:21:58.309Z,4.36
2017-03-27T04:22:58.337Z,4.5
2017-03-27T04:23:58.388Z,4.42
2017-03-27T04:24:58.402Z,4.36
2017-03-27T04:25:58.433Z,4.44
2017-03-27T04:26:58.163Z,4.4
2017-03-27T04:27:58.191Z,4.37
2017-03-27T04:28:58.533Z,4.36
2017-03-27T04:29:58.564Z,4.34
2017-03-27T04:30:58.612Z,4.5
2017-03-27T04:31:58.332Z,4.32
2017-03-27T04:32:58.672Z,4.33
2017-03-27T04:33:58.684Z,4.44
2017-03-27T04:34:58.414Z,4.42
2017-03-27T04:35:58.443Z,4.34
2017-03-27T04:36:58.503Z,4.32
2017-03-27T04:37:58.814Z,4.29
2017-03-27T04:38:58.547Z,4.28
2017-03-27T04:39:58.570Z,4.34
2017-03-27T04:40:58.603Z,4.34
2017-03-27T04:41:58.636Z,4.29
2017-03-27T04:42:58.667Z,4.26
2017-03-27T04:43:58.700Z,4.28
2017-03-27T04:44:58.725Z,4.33
2017-03-27T04:45:58.764Z,4.25
2017-03-27T04:46:58.793Z,4.25
2017-03-27T04:47:59.130Z,4.19
2017-03-27T04:48:59.162Z,4.26
2017-03-27T04:49:59.190Z,4.26
2017-03-27T04:50:58.918Z,4.21
2017-03-27T04:51:59.258Z,4.19
2017-03-27T04:52:59.285Z,4.25
2017-03-27T04:53:59.014Z,4.24
2017-03-27T04:54:59.345Z,4.22
2017-03-27T04:55:59.102Z,4.22
2017-03-27T04:56:59.409Z,4.25
2017-03-27T04:57:59.449Z,4.21
2017-03-27T04:58:59.474Z,4.25
2017-03-27T04:59:59.223Z,4.19
2017-03-27T05:00:59.536Z,4.19
2017-03-27T05:01:59.270Z,4.19
2017-03-27T05:02:59.297Z,4.28
2017-03-27T05:03:59.627Z,4.24
2017-03-27T05:04:59.680Z,4.34
2017-03-27T05:05:59.699Z,4.24
2017-03-27T05:06:59.417Z,4.29
2017-03-27T05:08:00.077Z,4.29
2017-03-27T05:08:59.482Z,4.29
2017-03-27T05:09:59.864Z,4.33
2017-03-27T05:10:59.541Z,4.22
2017-03-27T05:11:59.586Z,4.16
2017-03-27T05:12:59.622Z,4.33
2017-03-27T05:13:59.946Z,4.29
2017-03-27T05:14:59.675Z,4.33
2017-03-27T05:16:00.174Z,4.37
2017-03-27T05:17:00.041Z,4.37
2017-03-27T05:18:00.086Z,4.24
2017-03-27T05:19:00.111Z,4.33
2017-03-27T05:20:00.131Z,4.39
2017-03-27T05:20:59.855Z,4.33
2017-03-27T05:21:59.904Z,4.39
2017-03-27T05:22:59.921Z,4.37
2017-03-27T05:24:00.255Z,4.47
2017-03-27T05:25:00.293Z,4.51
2017-03-27T05:26:00.019Z,4.44
2017-03-27T05:27:00.057Z,4.5
2017-03-27T05:28:00.384Z,4.51
2017-03-27T05:29:00.429Z,4.42
2017-03-27T05:30:00.460Z,4.5
2017-03-27T05:31:00.177Z,4.58
2017-03-27T05:32:00.213Z,4.57
2017-03-27T05:33:00.543Z,4.64
2017-03-27T05:34:00.622Z,4.61
2017-03-27T05:35:00.604Z,4.58
2017-03-27T05:36:00.337Z,4.67
2017-03-27T05:37:00.373Z,4.65
2017-03-27T05:38:00.704Z,4.69
2017-03-27T05:39:00.432Z,4.72
2017-03-27T05:40:00.760Z,4.76
2017-03-27T05:41:00.491Z,4.77
2017-03-27T05:42:00.530Z,4.76
2017-03-27T05:43:01.166Z,4.75
2017-03-27T05:44:00.598Z,4.84
2017-03-27T05:45:00.618Z,4.75
2017-03-27T05:46:00.650Z,4.91
2017-03-27T05:47:00.682Z,4.88
2017-03-27T05:48:00.715Z,4.92
2017-03-27T05:49:00.744Z,4.94
2017-03-27T05:50:01.011Z,4.96
2017-03-27T05:51:00.807Z,4.98
2017-03-27T05:52:01.460Z,4.99
2017-03-27T05:53:00.876Z,5.05
2017-03-27T05:54:01.511Z,5.09
2017-03-27T05:55:01.240Z,5.16
2017-03-27T05:56:01.272Z,5.19
2017-03-27T05:57:01.002Z,5.14
2017-03-27T05:58:01.426Z,5.35
2017-03-27T05:59:01.069Z,5.83
2017-03-27T06:00:01.112Z,6.66
2017-03-27T06:01:01.144Z,7.58
2017-03-27T06:02:01.212Z,8.72
2017-03-27T06:03:01.508Z,9.68
2017-03-27T06:04:01.541Z,10.68
2017-03-27T06:05:01.577Z,11.61
2017-03-27T06:06:01.348Z,12.44
2017-03-27T06:07:01.648Z,13.2
2017-03-27T06:08:01.987Z,13.87
2017-03-27T06:09:01.712Z,14.35
2017-03-27T06:10:01.751Z,15.06
2017-03-27T06:11:01.784Z,15.61
2017-03-27T06:12:01.516Z,16.12
2017-03-27T06:13:01.560Z,16.62
2017-03-27T06:14:01.605Z,17.03
2017-03-27T06:15:01.635Z,17.55
2017-03-27T06:16:01.988Z,17.99
2017-03-27T06:17:01.715Z,18.29
2017-03-27T06:18:01.793Z,18.61
2017-03-27T06:19:02.869Z,18.94
2017-03-27T06:20:02.120Z,19.32
2017-03-27T06:21:02.050Z,19.6
2017-03-27T06:22:01.908Z,19.83
2017-03-27T06:23:01.950Z,20.05
2017-03-27T06:24:02.287Z,20.28
2017-03-27T06:25:02.701Z,20.56
2017-03-27T06:26:02.553Z,20.74
2017-03-27T06:27:02.460Z,21.09
2017-03-27T06:28:02.481Z,21.36
2017-03-27T06:29:02.838Z,21.72
2017-03-27T06:30:02.594Z,21.9
2017-03-27T06:31:02.273Z,22.23
2017-03-27T06:32:02.309Z,22.65
2017-03-27T06:33:02.352Z,22.8
2017-03-27T06:34:02.700Z,23.11
2017-03-27T06:35:02.446Z,23.29
2017-03-27T06:36:02.503Z,23.38
2017-03-27T06:37:02.639Z,23.5
2017-03-27T06:38:02.567Z,23.65
2017-03-27T06:39:02.688Z,23.85
2017-03-27T06:40:02.654Z,24.14
2017-03-27T06:41:02.688Z,24.22
2017-03-27T06:42:02.730Z,24.39
2017-03-27T06:43:03.581Z,24.56
2017-03-27T06:44:03.230Z,24.88
2017-03-27T06:45:02.948Z,25
2017-03-27T06:46:02.909Z,25.12
2017-03-27T06:47:02.944Z,25.27
2017-03-27T06:48:03.297Z,25.44
2017-03-27T06:49:03.039Z,25.68
2017-03-27T06:50:03.748Z,25.91
2017-03-27T06:51:03.155Z,26.04
2017-03-27T06:52:03.171Z,26.09
2017-03-27T06:53:03.515Z,26.17
2017-03-27T06:54:03.265Z,26.25
2017-03-27T06:55:03.312Z,26.44
2017-03-27T06:56:03.707Z,26.47
2017-03-27T06:57:03.690Z,26.59
2017-03-27T06:58:03.441Z,26.54
2017-03-27T06:59:03.475Z,26.46
2017-03-27T07:00:03.826Z,26.36
2017-03-27T07:01:03.863Z,26.24
2017-03-27T07:02:03.645Z,26.12
2017-03-27T07:03:03.685Z,26.24
2017-03-27T07:04:04.005Z,26.27
2017-03-27T07:05:03.746Z,26.39
2017-03-27T07:06:03.788Z,26.73
2017-03-27T07:07:03.833Z,26.86
2017-03-27T07:08:04.198Z,27.14
2017-03-27T07:09:03.934Z,27.35
2017-03-27T07:10:04.313Z,27.38
2017-03-27T07:11:04.070Z,27.41
2017-03-27T07:12:04.065Z,27.31
2017-03-27T07:13:04.415Z,27.42
2017-03-27T07:14:04.152Z,27.51
2017-03-27T07:15:04.506Z,27.67
2017-03-27T07:16:04.241Z,27.79
2017-03-27T07:17:04.291Z,27.77
2017-03-27T07:18:04.699Z,27.95
2017-03-27T07:19:04.698Z,28.07
2017-03-27T07:20:04.732Z,28.25
2017-03-27T07:21:04.779Z,28.38
2017-03-27T07:22:04.522Z,28.54
2017-03-27T07:23:04.568Z,28.68
2017-03-27T07:24:04.918Z,28.91
2017-03-27T07:25:04.651Z,29.06
2017-03-27T07:26:04.729Z,29.2
2017-03-27T07:27:05.064Z,29.41
2017-03-27T07:28:05.109Z,29.37
2017-03-27T07:29:05.149Z,29.38
2017-03-27T07:30:04.890Z,29.37
2017-03-27T07:31:04.935Z,29.43
2017-03-27T07:32:04.994Z,29.5
2017-03-27T07:33:05.041Z,29.55
2017-03-27T07:34:05.084Z,29.49
2017-03-27T07:35:05.161Z,29.52
2017-03-27T07:36:05.174Z,29.74
2017-03-27T07:37:05.230Z,29.86
2017-03-27T07:38:05.603Z,29.87
2017-03-27T07:39:05.622Z,30.02
2017-03-27T07:40:05.366Z,30.24
2017-03-27T07:41:05.429Z,30.18
2017-03-27T07:42:05.774Z,30.21
2017-03-27T07:43:05.505Z,30.27
2017-03-27T07:44:05.916Z,30.31
2017-03-27T07:45:05.630Z,30.38
2017-03-27T07:46:06.390Z,30.34
2017-03-27T07:47:06.294Z,30.38
2017-03-27T07:48:06.785Z,30.4
2017-03-27T07:49:05.793Z,30.4
2017-03-27T07:50:05.879Z,30.26
2017-03-27T07:51:05.887Z,30.36
2017-03-27T07:52:05.934Z,30.5
2017-03-27T07:53:06.059Z,30.67
2017-03-27T07:54:06.356Z,30.72
2017-03-27T07:55:06.108Z,30.81
2017-03-27T07:56:06.429Z,31.08
2017-03-27T07:57:06.204Z,31.17
2017-03-27T07:58:06.226Z,31.35
2017-03-27T07:59:06.269Z,31.27
2017-03-27T08:00:06.620Z,31.26
2017-03-27T08:01:06.671Z,31.17
2017-03-27T08:02:06.414Z,30.94
2017-03-27T08:03:06.790Z,30.81
2017-03-27T08:04:06.517Z,30.86
2017-03-27T08:05:06.559Z,30.89
2017-03-27T08:06:06.793Z,31.01
2017-03-27T08:07:06.824Z,31.24
2017-03-27T08:08:06.709Z,31.31
2017-03-27T08:09:06.760Z,31.49
2017-03-27T08:10:06.809Z,31.72
2017-03-27T08:11:06.849Z,31.79
2017-03-27T08:12:06.898Z,32.05
2017-03-27T08:13:07.418Z,32.24
2017-03-27T08:14:07.000Z,32.24
2017-03-27T08:15:07.178Z,32.43
2017-03-27T08:16:07.101Z,32.55
2017-03-27T08:17:07.451Z,32.51
2017-03-27T08:18:07.510Z,32.71
2017-03-27T08:19:07.553Z,32.79
2017-03-27T08:20:07.608Z,32.81
2017-03-27T08:21:07.424Z,32.77
2017-03-27T08:22:07.449Z,32.98
2017-03-27T08:23:07.813Z,32.93
2017-03-27T08:24:07.809Z,32.71
2017-03-27T08:25:07.850Z,32.74
2017-03-27T08:26:07.900Z,32.85
2017-03-27T08:27:07.710Z,32.89
2017-03-27T08:28:07.711Z,33.07
2017-03-27T08:29:07.977Z,33.1
2017-03-27T08:30:07.846Z,33.2
2017-03-27T08:31:08.149Z,33.15
2017-03-27T08:32:08.810Z,33.22
2017-03-27T08:33:08.257Z,33.27
2017-03-27T08:34:07.993Z,33.31
2017-03-27T08:35:08.349Z,33.31
2017-03-27T08:36:08.413Z,33.14
2017-03-27T08:37:08.154Z,32.89
2017-03-27T08:38:08.255Z,32.58
2017-03-27T08:39:08.263Z,32.33
2017-03-27T08:40:08.302Z,31.95
2017-03-27T08:41:08.660Z,31.65
2017-03-27T08:42:08.712Z,31.46
2017-03-27T08:43:08.760Z,31.55
2017-03-27T08:44:08.504Z,31.54
2017-03-27T08:45:08.557Z,31.45
2017-03-27T08:46:08.601Z,31.26
2017-03-27T08:47:08.657Z,30.96
2017-03-27T08:48:08.702Z,30.94
2017-03-27T08:49:09.058Z,30.99
2017-03-27T08:50:08.803Z,31.12
2017-03-27T08:51:08.881Z,31.11
2017-03-27T08:52:08.930Z,31.02
2017-03-27T08:53:09.258Z,31.05
2017-03-27T08:54:09.012Z,31.02
2017-03-27T08:55:10.217Z,30.91
2017-03-27T08:56:09.109Z,30.67
2017-03-27T08:57:09.473Z,30.69
2017-03-27T08:58:09.214Z,30.83
2017-03-27T08:59:09.571Z,30.96
2017-03-27T09:00:09.315Z,31.09
2017-03-27T09:01:09.365Z,31.24
2017-03-27T09:02:09.423Z,31.3
2017-03-27T09:03:09.471Z,31.26
2017-03-27T09:04:09.826Z,30.91
2017-03-27T09:05:09.728Z,30.67
2017-03-27T09:06:09.623Z,30.61
2017-03-27T09:07:09.886Z,30.59
2017-03-27T09:08:09.726Z,30.71
2017-03-27T09:09:10.081Z,30.81
2017-03-27T09:10:09.832Z,31.05
2017-03-27T09:11:09.885Z,30.93
2017-03-27T09:12:09.964Z,30.9
2017-03-27T09:13:10.288Z,30.72
2017-03-27T09:14:10.348Z,30.69
2017-03-27T09:15:10.160Z,30.59
2017-03-27T09:16:10.142Z,30.67
2017-03-27T09:17:10.506Z,30.71
2017-03-27T09:18:10.558Z,30.56
2017-03-27T09:19:10.307Z,30.56
2017-03-27T09:20:10.407Z,30.68
2017-03-27T09:21:11.014Z,30.64
2017-03-27T09:22:10.765Z,30.57
2017-03-27T09:23:10.517Z,30.46
2017-03-27T09:24:10.571Z,30.36
2017-03-27T09:25:10.629Z,30.24
2017-03-27T09:26:10.998Z,30.21
2017-03-27T09:27:10.727Z,30.23
2017-03-27T09:28:10.782Z,30.3
2017-03-27T09:29:10.834Z,30.38
2017-03-27T09:30:10.893Z,30.5
2017-03-27T09:31:10.941Z,30.64
2017-03-27T09:32:11.301Z,30.54
2017-03-27T09:33:11.353Z,30.49
2017-03-27T09:34:11.116Z,30.31
2017-03-27T09:35:11.462Z,30.31
2017-03-27T09:36:11.515Z,30.33
2017-03-27T09:37:11.270Z,30.46
2017-03-27T09:38:11.627Z,30.49
2017-03-27T09:39:11.395Z,30.36
2017-03-27T09:40:11.434Z,30.26
2017-03-27T09:41:11.486Z,30.08
2017-03-27T09:42:11.542Z,29.79
2017-03-27T09:43:11.905Z,29.44
2017-03-27T09:44:12.260Z,29.08
2017-03-27T09:45:11.711Z,28.72
2017-03-27T09:46:11.763Z,28.59
2017-03-27T09:47:11.816Z,28.51
2017-03-27T09:48:12.173Z,28.59
2017-03-27T09:49:11.931Z,28.69
2017-03-27T09:50:11.993Z,28.73
2017-03-27T09:51:12.034Z,28.8
2017-03-27T09:52:12.091Z,28.66
2017-03-27T09:53:12.467Z,28.66
2017-03-27T09:54:12.504Z,28.72
2017-03-27T09:55:12.559Z,28.9
2017-03-27T09:56:12.316Z,28.93
2017-03-27T09:57:12.698Z,28.87
2017-03-27T09:58:12.429Z,28.95
2017-03-27T09:59:12.781Z,28.97
2017-03-27T10:00:12.535Z,29.01
2017-03-27T10:01:12.593Z,28.91
2017-03-27T10:02:12.647Z,28.93
2017-03-27T10:03:12.733Z,28.81
2017-03-27T10:04:13.063Z,28.84
2017-03-27T10:05:13.118Z,28.91
2017-03-27T10:06:12.871Z,28.87
2017-03-27T10:07:12.930Z,28.69
2017-03-27T10:08:12.991Z,28.63
2017-03-27T10:09:13.358Z,28.62
2017-03-27T10:10:13.094Z,28.51
2017-03-27T10:11:13.459Z,28.28
2017-03-27T10:12:13.208Z,28.07
2017-03-27T10:13:13.262Z,27.84
2017-03-27T10:14:13.320Z,27.62
2017-03-27T10:15:13.440Z,27.59
2017-03-27T10:16:13.438Z,27.7
2017-03-27T10:17:13.586Z,27.8
2017-03-27T10:18:13.554Z,27.91
2017-03-27T10:19:14.213Z,27.96
2017-03-27T10:20:13.662Z,27.95
2017-03-27T10:21:14.321Z,27.98
2017-03-27T10:22:14.088Z,27.8
2017-03-27T10:23:14.139Z,27.84
2017-03-27T10:24:14.196Z,27.98
2017-03-27T10:25:13.959Z,27.8
2017-03-27T10:26:14.001Z,27.82
2017-03-27T10:27:14.070Z,27.73
2017-03-27T10:28:14.121Z,27.61
2017-03-27T10:29:14.175Z,27.47
2017-03-27T10:30:14.230Z,27.41
2017-03-27T10:31:14.295Z,27.2
2017-03-27T10:32:14.653Z,26.98
2017-03-27T10:33:14.409Z,26.81
2017-03-27T10:34:14.768Z,26.68
2017-03-27T10:35:14.822Z,26.68
2017-03-27T10:36:14.581Z,26.55
2017-03-27T10:37:15.241Z,26.57
2017-03-27T10:38:14.697Z,26.49
2017-03-27T10:39:14.758Z,26.4
2017-03-27T10:40:14.808Z,26.42
2017-03-27T10:41:14.859Z,26.32
2017-03-27T10:42:15.515Z,26.29
2017-03-27T10:43:15.279Z,26.28
2017-03-27T10:44:15.333Z,26.31
2017-03-27T10:45:15.089Z,26.32
2017-03-27T10:46:15.163Z,26.35
2017-03-27T10:47:15.227Z,26.24
2017-03-27T10:48:15.263Z,26.18
2017-03-27T10:49:15.623Z,26.09
2017-03-27T10:50:15.372Z,25.91
2017-03-27T10:51:15.432Z,25.84
2017-03-27T10:52:15.506Z,25.77
2017-03-27T10:53:15.552Z,25.93
2017-03-27T10:54:15.603Z,25.94
2017-03-27T10:55:15.699Z,25.91
2017-03-27T10:56:16.018Z,25.94
2017-03-27T10:57:16.074Z,25.87
2017-03-27T10:58:16.137Z,25.94
2017-03-27T10:59:16.187Z,25.99
2017-03-27T11:00:15.940Z,25.98
2017-03-27T11:01:15.996Z,25.86
2017-03-27T11:02:16.385Z,25.89
2017-03-27T11:03:16.723Z,25.91
2017-03-27T11:04:16.480Z,25.89
2017-03-27T11:05:16.259Z,25.89
2017-03-27T11:06:16.281Z,25.93
2017-03-27T11:07:16.661Z,25.87
2017-03-27T11:08:16.702Z,25.83
2017-03-27T11:09:16.644Z,25.87
2017-03-27T11:10:16.507Z,25.71
2017-03-27T11:11:16.558Z,25.61
2017-03-27T11:12:16.617Z,25.5
2017-03-27T11:13:16.680Z,25.44
2017-03-27T11:14:17.027Z,25.5
2017-03-27T11:15:17.094Z,25.34
2017-03-27T11:16:16.839Z,25.39
2017-03-27T11:17:17.200Z,25.35
2017-03-27T11:18:17.254Z,25.28
2017-03-27T11:19:17.306Z,25.17
2017-03-27T11:20:17.053Z,25.2
2017-03-27T11:21:17.105Z,24.91
2017-03-27T11:22:17.460Z,25
2017-03-27T11:23:17.216Z,24.83
2017-03-27T11:24:17.268Z,24.76
2017-03-27T11:25:17.399Z,24.61
2017-03-27T11:26:17.673Z,24.57
2017-03-27T11:27:17.449Z,24.42
2017-03-27T11:28:17.781Z,24.34
2017-03-27T11:29:17.531Z,24.35
2017-03-27T11:30:17.581Z,24.26
2017-03-27T11:31:17.627Z,24.26
2017-03-27T11:32:17.686Z,24.16
2017-03-27T11:33:17.736Z,24.1
2017-03-27T11:34:18.403Z,23.9
2017-03-27T11:35:17.830Z,23.75
2017-03-27T11:36:17.882Z,23.67
2017-03-27T11:37:17.935Z,23.46
2017-03-27T11:38:17.986Z,23.31
2017-03-27T11:39:18.338Z,23.19
2017-03-27T11:40:18.291Z,23.12
2017-03-27T11:41:18.128Z,23.12
2017-03-27T11:42:18.184Z,22.97
2017-03-27T11:43:18.529Z,22.84
2017-03-27T11:44:18.281Z,22.75
2017-03-27T11:45:18.351Z,22.64
2017-03-27T11:46:18.369Z,22.68
2017-03-27T11:47:18.475Z,22.62
2017-03-27T11:48:18.825Z,22.69
2017-03-27T11:49:18.517Z,22.65
2017-03-27T11:50:18.593Z,22.67
2017-03-27T11:51:18.645Z,22.69
2017-03-27T11:52:18.670Z,22.67
2017-03-27T11:53:18.713Z,22.67
2017-03-27T11:54:18.753Z,22.67
2017-03-27T11:55:18.812Z,22.62
2017-03-27T11:56:18.863Z,22.62
2017-03-27T11:57:18.887Z,22.56
2017-03-27T11:58:18.934Z,22.38
2017-03-27T11:59:18.978Z,22.41
2017-03-27T12:00:19.047Z,22.37
2017-03-27T12:01:19.071Z,22.27
2017-03-27T12:02:19.421Z,22.28
2017-03-27T12:03:19.181Z,22.25
2017-03-27T12:04:19.212Z,22.16
2017-03-27T12:05:19.256Z,22.13
2017-03-27T12:06:19.314Z,22.14
2017-03-27T12:07:19.346Z,22.01
2017-03-27T12:08:19.392Z,21.92
2017-03-27T12:09:19.445Z,21.88
2017-03-27T12:10:19.502Z,21.88
2017-03-27T12:11:19.529Z,21.74
2017-03-27T12:12:19.574Z,21.85
2017-03-27T12:13:19.923Z,21.66
2017-03-27T12:14:19.663Z,21.71
2017-03-27T12:15:19.709Z,21.6
2017-03-27T12:16:19.748Z,21.57
2017-03-27T12:17:20.095Z,21.5
2017-03-27T12:18:20.141Z,21.51
2017-03-27T12:19:19.882Z,21.44
2017-03-27T12:20:20.227Z,21.39
2017-03-27T12:21:20.043Z,21.21
2017-03-27T12:22:20.032Z,21.27
2017-03-27T12:23:20.057Z,21.2
2017-03-27T12:24:20.099Z,21.06
2017-03-27T12:25:20.176Z,21.02
2017-03-27T12:26:20.198Z,21.05
2017-03-27T12:27:20.246Z,20.93
2017-03-27T12:28:20.271Z,20.91
2017-03-27T12:29:20.338Z,20.89
2017-03-27T12:30:20.686Z,20.84
2017-03-27T12:31:20.420Z,20.74
2017-03-27T12:32:20.457Z,20.72
2017-03-27T12:33:20.555Z,20.66
2017-03-27T12:34:20.531Z,20.62
2017-03-27T12:35:20.576Z,20.58
2017-03-27T12:36:20.684Z,20.5
2017-03-27T12:37:20.661Z,20.47
2017-03-27T12:38:20.702Z,20.51
2017-03-27T12:39:21.058Z,20.33
2017-03-27T12:40:20.792Z,20.27
2017-03-27T12:41:20.844Z,20.18
2017-03-27T12:42:20.892Z,20.08
2017-03-27T12:43:21.091Z,20.12
2017-03-27T12:44:20.960Z,20.06
2017-03-27T12:45:20.999Z,20.03
2017-03-27T12:46:21.052Z,20.05
2017-03-27T12:47:21.412Z,20.16
2017-03-27T12:48:21.147Z,20.06
2017-03-27T12:49:21.477Z,20.08
2017-03-27T12:50:21.229Z,20.06
2017-03-27T12:51:21.265Z,20
2017-03-27T12:52:21.309Z,20
2017-03-27T12:53:21.657Z,20.12
2017-03-27T12:54:21.448Z,20.06
2017-03-27T12:55:21.427Z,20.02
2017-03-27T12:56:21.484Z,20.06
2017-03-27T12:57:21.531Z,19.94
2017-03-27T12:58:21.555Z,19.93
2017-03-27T12:59:21.602Z,20
2017-03-27T13:00:21.643Z,19.87
2017-03-27T13:01:21.684Z,19.9
2017-03-27T13:02:22.026Z,19.8
2017-03-27T13:03:21.767Z,19.91
2017-03-27T13:04:21.806Z,19.75
2017-03-27T13:05:21.848Z,19.79
2017-03-27T13:06:21.899Z,19.72
2017-03-27T13:07:22.240Z,19.76
2017-03-27T13:08:22.281Z,19.68